Radar strel več informacij blitzortung!


Radar padavin  rain snow radar


Obiščite še:

Template documentation
and downloads

And another site



Posebna pozornost v zvezi z vremenskimi dogajanji ni potrebna.    Posebna pozornost v zvezi z vremenskimi dogajanji ni potrebna.

METAR v bližini

   
EBBR - Brussels International Airport, Belgium
Oddaljenost od postaje: Z 14 km
Posodobljeno: 27-07-2017 14:20
delno oblačno  
delno oblačno  
   Veter: Zahod 9.3 km/h
Veter: Zahod 9.3 km/h
Temperatura: 19°C
Točka rosišča: 11°C
Zunanja vlažnost: 60%
Zračni tlak: 1008 hPa
Oblaki: delno oblačno
Vidljivost: More than 10 km
Podrobnosti o oblakih: delno oblačno 3600 ft
EBBR 271220Z 28005KT 260V320 9999 SCT036 19/11 Q1008 NOSIG
EBBE - Beauvechain (Bevekom), Belgium
Oddaljenost od postaje: JJV 17 km
Posodobljeno: 27-07-2017 14:25
pretežno oblačno  
pretežno oblačno  
   Veter: ZJZ 14.8 km/h
Veter: ZJZ 14.8 km/h
Temperatura: 19°C
Točka rosišča: 10°C
Zunanja vlažnost: 56%
Zračni tlak: 1008 hPa
Oblaki: pretežno oblačno
Vidljivost: More than 10 km
Podrobnosti o oblakih: nekaj oblakov 4000 ft,
pretežno oblačno 16000 ft
EBBE 271225Z 24008KT 9999 FEW040 BKN160 19/10 Q1008 BLU BLU
EBDT - Schaffen, Belgium
Oddaljenost od postaje: VSV 29 km
Posodobljeno: 27-07-2017 11:55
Ni aktualni
  
  
   Veter: ZJZ 16.7 km/h
Veter: ZJZ 16.7 km/h
Temperatura: 18°C
Točka rosišča: 12°C
Zunanja vlažnost: 68%
Zračni tlak: 1009 hPa
Vidljivost: More than 10 km
EBDT 270955Z AUTO 24009KT 9999 /// 18/12 Q1009
EBAW - Antwerp/Deurne, Belgium
Oddaljenost od postaje: SSZ 38 km
Posodobljeno: 27-07-2017 14:20
delno oblačno  
delno oblačno  
   Veter: ZJZ 14.8 km/h
Veter: ZJZ 14.8 km/h
Temperatura: 20°C
Točka rosišča: 10°C
Zunanja vlažnost: 53%
Zračni tlak: 1008 hPa
Oblaki: delno oblačno
Vidljivost: More than 10 km
Podrobnosti o oblakih: delno oblačno 3800 ft
EBAW 271220Z 24008KT 210V270 9999 SCT038 20/10 Q1008 NOSIG
EBCI - Charleroi/Gosselies, Belgium
Oddaljenost od postaje: JJZ 51 km
Posodobljeno: 27-07-2017 14:20
delno oblačno  
delno oblačno  
   Veter: ZJZ 27.8 km/h
Veter: ZJZ 27.8 km/h
Temperatura: 19°C
Točka rosišča: 11°C
Zunanja vlažnost: 60%
Zračni tlak: 1009 hPa
Oblaki: delno oblačno
Vidljivost: More than 10 km
Podrobnosti o oblakih: delno oblačno 2500 ft,
delno oblačno 4500 ft
EBCI 271220Z 24015KT 9999 SCT025 SCT045 19/11 Q1009 NOSIG
EBLG - Bierset/Liege, Belgium
Oddaljenost od postaje: VJV 60 km
Posodobljeno: 27-07-2017 14:20
pretežno oblačno  
pretežno oblačno  
   Veter: ZJZ 16.7 km/h
Veter: ZJZ 16.7 km/h
Temperatura: 19°C
Točka rosišča: 12°C
Zunanja vlažnost: 64%
Zračni tlak: 1009 hPa
Oblaki: pretežno oblačno
Vidljivost: More than 10 km
Podrobnosti o oblakih: nekaj oblakov 2300 ft,
pretežno oblačno 4000 ft
EBLG 271220Z 25009KT 9999 FEW023 BKN040 19/12 Q1009 NOSIG

Script developed by  Saratoga-weather.org Adapted for the template by  Weerstation Leuven